sensor_id;sensor_type;location;lat;lon;timestamp;P1;durP1;ratioP1;P2;durP2;ratioP2
28455;SDS011;15682;56.742;38.866;2024-03-23T00:54:34;66.5;;;37.7;;
28455;SDS011;15682;56.742;38.866;2024-03-23T00:56:34;72.3;;;38.3;;
28455;SDS011;15682;56.742;38.866;2024-03-23T00:58:34;64.4;;;35.3;;
28455;SDS011;15682;56.742;38.866;2024-03-23T01:00:34;73.3;;;39.3;;
28455;SDS011;15682;56.742;38.866;2024-03-23T01:02:34;71.9;;;38.7;;
28455;SDS011;15682;56.742;38.866;2024-03-23T01:04:34;70.3;;;36.7;;
28455;SDS011;15682;56.742;38.866;2024-03-23T01:06:34;70.9;;;37.8;;
28455;SDS011;15682;56.742;38.866;2024-03-23T01:08:34;78.1;;;41.7;;
28455;SDS011;15682;56.742;38.866;2024-03-23T01:10:34;77.0;;;41.4;;
28455;SDS011;15682;56.742;38.866;2024-03-23T01:12:34;73.3;;;39.5;;
28455;SDS011;15682;56.742;38.866;2024-03-23T01:14:34;78.8;;;42.4;;
28455;SDS011;15682;56.742;38.866;2024-03-23T01:16:34;68.1;;;38.9;;
28455;SDS011;15682;56.742;38.866;2024-03-23T01:18:34;72.6;;;39.5;;
28455;SDS011;15682;56.742;38.866;2024-03-23T01:20:34;71.5;;;38.7;;
28455;SDS011;15682;56.742;38.866;2024-03-23T01:22:33;72.3;;;40.6;;
28455;SDS011;15682;56.742;38.866;2024-03-23T01:24:33;70.7;;;38.5;;
28455;SDS011;15682;56.742;38.866;2024-03-23T01:26:33;64.6;;;36.4;;
28455;SDS011;15682;56.742;38.866;2024-03-23T01:28:33;74.1;;;41.5;;
28455;SDS011;15682;56.742;38.866;2024-03-23T01:30:34;97.0;;;51.0;;
28455;SDS011;15682;56.742;38.866;2024-03-23T01:32:33;90.2;;;47.8;;
28455;SDS011;15682;56.742;38.866;2024-03-23T01:34:33;89.3;;;47.2;;
28455;SDS011;15682;56.742;38.866;2024-03-23T01:36:33;85.9;;;46.8;;
28455;SDS011;15682;56.742;38.866;2024-03-23T01:38:33;75.9;;;40.3;;
28455;SDS011;15682;56.742;38.866;2024-03-23T01:40:33;88.3;;;48.2;;
28455;SDS011;15682;56.742;38.866;2024-03-23T01:42:33;78.7;;;43.0;;
28455;SDS011;15682;56.742;38.866;2024-03-23T01:44:33;69.2;;;39.4;;
28455;SDS011;15682;56.742;38.866;2024-03-23T01:46:33;84.5;;;45.8;;
28455;SDS011;15682;56.742;38.866;2024-03-23T01:48:33;85.9;;;46.8;;
28455;SDS011;15682;56.742;38.866;2024-03-23T01:50:33;75.3;;;41.4;;
28455;SDS011;15682;56.742;38.866;2024-03-23T01:52:33;84.4;;;43.8;;
28455;SDS011;15682;56.742;38.866;2024-03-23T01:54:33;73.0;;;41.4;;
28455;SDS011;15682;56.742;38.866;2024-03-23T01:56:33;88.0;;;47.7;;
28455;SDS011;15682;56.742;38.866;2024-03-23T01:58:33;73.7;;;41.0;;
28455;SDS011;15682;56.742;38.866;2024-03-23T02:00:33;86.9;;;44.1;;
28455;SDS011;15682;56.742;38.866;2024-03-23T02:02:33;78.3;;;43.7;;
28455;SDS011;15682;56.742;38.866;2024-03-23T02:04:33;105.9;;;53.0;;
28455;SDS011;15682;56.742;38.866;2024-03-23T02:06:33;91.6;;;50.4;;
28455;SDS011;15682;56.742;38.866;2024-03-23T02:08:33;87.7;;;48.0;;
28455;SDS011;15682;56.742;38.866;2024-03-23T02:10:33;93.5;;;48.8;;
28455;SDS011;15682;56.742;38.866;2024-03-23T02:12:33;84.2;;;44.3;;
28455;SDS011;15682;56.742;38.866;2024-03-23T02:14:33;80.1;;;45.1;;
28455;SDS011;15682;56.742;38.866;2024-03-23T02:16:33;86.6;;;47.4;;
28455;SDS011;15682;56.742;38.866;2024-03-23T02:18:33;80.7;;;46.0;;
28455;SDS011;15682;56.742;38.866;2024-03-23T02:20:33;98.7;;;50.2;;
28455;SDS011;15682;56.742;38.866;2024-03-23T02:22:35;89.3;;;47.9;;
28455;SDS011;15682;56.742;38.866;2024-03-23T02:24:32;87.1;;;44.9;;
28455;SDS011;15682;56.742;38.866;2024-03-23T02:26:33;90.2;;;48.2;;
28455;SDS011;15682;56.742;38.866;2024-03-23T02:28:32;88.5;;;48.0;;
28455;SDS011;15682;56.742;38.866;2024-03-23T02:30:32;101.2;;;53.4;;
28455;SDS011;15682;56.742;38.866;2024-03-23T02:32:32;99.2;;;52.3;;
28455;SDS011;15682;56.742;38.866;2024-03-23T02:34:32;100.7;;;53.2;;
28455;SDS011;15682;56.742;38.866;2024-03-23T02:36:32;94.0;;;50.1;;
28455;SDS011;15682;56.742;38.866;2024-03-23T02:38:32;95.2;;;51.4;;
28455;SDS011;15682;56.742;38.866;2024-03-23T02:40:32;94.5;;;52.1;;
28455;SDS011;15682;56.742;38.866;2024-03-23T02:42:32;87.9;;;47.9;;
28455;SDS011;15682;56.742;38.866;2024-03-23T02:44:32;85.3;;;46.5;;
28455;SDS011;15682;56.742;38.866;2024-03-23T02:46:32;92.1;;;50.4;;
28455;SDS011;15682;56.742;38.866;2024-03-23T02:48:32;88.9;;;49.1;;
28455;SDS011;15682;56.742;38.866;2024-03-23T02:50:32;95.3;;;52.1;;
28455;SDS011;15682;56.742;38.866;2024-03-23T02:52:32;100.6;;;54.7;;
28455;SDS011;15682;56.742;38.866;2024-03-23T02:54:32;89.1;;;48.4;;
28455;SDS011;15682;56.742;38.866;2024-03-23T02:56:32;85.7;;;48.9;;
28455;SDS011;15682;56.742;38.866;2024-03-23T02:58:32;84.4;;;44.0;;
28455;SDS011;15682;56.742;38.866;2024-03-23T03:00:32;80.4;;;45.6;;
28455;SDS011;15682;56.742;38.866;2024-03-23T03:02:32;94.0;;;49.8;;
28455;SDS011;15682;56.742;38.866;2024-03-23T03:04:32;84.6;;;46.3;;
28455;SDS011;15682;56.742;38.866;2024-03-23T03:06:32;90.0;;;48.9;;
28455;SDS011;15682;56.742;38.866;2024-03-23T03:08:32;81.8;;;45.1;;
28455;SDS011;15682;56.742;38.866;2024-03-23T03:10:32;84.0;;;44.8;;
28455;SDS011;15682;56.742;38.866;2024-03-23T03:12:32;90.5;;;50.3;;
28455;SDS011;15682;56.742;38.866;2024-03-23T03:14:32;99.3;;;54.0;;
28455;SDS011;15682;56.742;38.866;2024-03-23T03:16:32;96.8;;;53.1;;
28455;SDS011;15682;56.742;38.866;2024-03-23T03:18:32;81.8;;;45.6;;
28455;SDS011;15682;56.742;38.866;2024-03-23T03:20:31;89.0;;;49.7;;
28455;SDS011;15682;56.742;38.866;2024-03-23T03:22:32;83.6;;;47.0;;
28455;SDS011;15682;56.742;38.866;2024-03-23T03:24:31;85.8;;;46.2;;
28455;SDS011;15682;56.742;38.866;2024-03-23T03:26:31;91.0;;;47.7;;
28455;SDS011;15682;56.742;38.866;2024-03-23T03:28:32;83.1;;;44.1;;
28455;SDS011;15682;56.742;38.866;2024-03-23T03:30:31;75.9;;;43.7;;
28455;SDS011;15682;56.742;38.866;2024-03-23T03:32:32;79.6;;;43.9;;
28455;SDS011;15682;56.742;38.866;2024-03-23T03:34:31;76.2;;;43.5;;
28455;SDS011;15682;56.742;38.866;2024-03-23T03:36:31;87.9;;;45.9;;
28455;SDS011;15682;56.742;38.866;2024-03-23T03:38:31;78.6;;;44.0;;
28455;SDS011;15682;56.742;38.866;2024-03-23T03:40:31;82.6;;;45.3;;
28455;SDS011;15682;56.742;38.866;2024-03-23T03:42:31;85.9;;;46.0;;
28455;SDS011;15682;56.742;38.866;2024-03-23T03:44:31;79.3;;;44.6;;
28455;SDS011;15682;56.742;38.866;2024-03-23T03:46:31;74.0;;;39.6;;
28455;SDS011;15682;56.742;38.866;2024-03-23T03:48:31;74.8;;;43.1;;
28455;SDS011;15682;56.742;38.866;2024-03-23T03:50:31;76.8;;;41.3;;
28455;SDS011;15682;56.742;38.866;2024-03-23T03:52:31;74.8;;;40.3;;
28455;SDS011;15682;56.742;38.866;2024-03-23T03:54:32;72.0;;;40.0;;
28455;SDS011;15682;56.742;38.866;2024-03-23T03:56:31;78.3;;;42.8;;
28455;SDS011;15682;56.742;38.866;2024-03-23T03:58:31;74.9;;;41.0;;
28455;SDS011;15682;56.742;38.866;2024-03-23T04:00:31;78.3;;;41.4;;
28455;SDS011;15682;56.742;38.866;2024-03-23T04:02:31;74.1;;;42.5;;
28455;SDS011;15682;56.742;38.866;2024-03-23T04:04:31;79.5;;;44.0;;
28455;SDS011;15682;56.742;38.866;2024-03-23T04:06:31;75.2;;;42.4;;
28455;SDS011;15682;56.742;38.866;2024-03-23T04:08:31;77.5;;;43.1;;
28455;SDS011;15682;56.742;38.866;2024-03-23T04:10:31;79.4;;;42.4;;
28455;SDS011;15682;56.742;38.866;2024-03-23T04:12:31;83.1;;;43.0;;
28455;SDS011;15682;56.742;38.866;2024-03-23T04:14:31;79.7;;;42.6;;
28455;SDS011;15682;56.742;38.866;2024-03-23T04:16:33;82.7;;;43.4;;
28455;SDS011;15682;56.742;38.866;2024-03-23T04:18:31;76.5;;;41.5;;
28455;SDS011;15682;56.742;38.866;2024-03-23T04:20:31;76.1;;;42.3;;
28455;SDS011;15682;56.742;38.866;2024-03-23T04:22:31;76.3;;;43.4;;
28455;SDS011;15682;56.742;38.866;2024-03-23T04:24:31;78.4;;;42.3;;
28455;SDS011;15682;56.742;38.866;2024-03-23T04:26:39;79.6;;;42.9;;
28455;SDS011;15682;56.742;38.866;2024-03-23T04:28:31;79.1;;;43.0;;
28455;SDS011;15682;56.742;38.866;2024-03-23T04:30:31;81.1;;;42.9;;
28455;SDS011;15682;56.742;38.866;2024-03-23T04:32:31;80.0;;;42.5;;
28455;SDS011;15682;56.742;38.866;2024-03-23T04:34:31;80.8;;;44.4;;
28455;SDS011;15682;56.742;38.866;2024-03-23T04:36:31;77.9;;;43.8;;
28455;SDS011;15682;56.742;38.866;2024-03-23T04:38:31;80.4;;;43.9;;
28455;SDS011;15682;56.742;38.866;2024-03-23T04:40:31;80.9;;;43.7;;
28455;SDS011;15682;56.742;38.866;2024-03-23T04:42:31;81.6;;;44.9;;
28455;SDS011;15682;56.742;38.866;2024-03-23T04:44:31;88.8;;;46.2;;
28455;SDS011;15682;56.742;38.866;2024-03-23T04:46:31;86.1;;;45.4;;
28455;SDS011;15682;56.742;38.866;2024-03-23T04:48:31;82.3;;;43.5;;
28455;SDS011;15682;56.742;38.866;2024-03-23T04:50:31;89.3;;;47.0;;
28455;SDS011;15682;56.742;38.866;2024-03-23T04:52:31;81.5;;;45.2;;
28455;SDS011;15682;56.742;38.866;2024-03-23T04:54:31;88.1;;;45.0;;
28455;SDS011;15682;56.742;38.866;2024-03-23T04:56:31;83.4;;;45.2;;
28455;SDS011;15682;56.742;38.866;2024-03-23T04:58:31;83.6;;;44.8;;
28455;SDS011;15682;56.742;38.866;2024-03-23T05:00:31;78.6;;;43.6;;
28455;SDS011;15682;56.742;38.866;2024-03-23T05:02:31;85.8;;;45.1;;
28455;SDS011;15682;56.742;38.866;2024-03-23T05:04:31;82.6;;;44.9;;
28455;SDS011;15682;56.742;38.866;2024-03-23T05:06:31;80.8;;;44.2;;
28455;SDS011;15682;56.742;38.866;2024-03-23T05:08:31;84.8;;;45.3;;
28455;SDS011;15682;56.742;38.866;2024-03-23T05:10:31;85.4;;;45.0;;
28455;SDS011;15682;56.742;38.866;2024-03-23T05:12:31;84.6;;;44.7;;
28455;SDS011;15682;56.742;38.866;2024-03-23T05:14:31;81.2;;;45.1;;
28455;SDS011;15682;56.742;38.866;2024-03-23T05:16:31;91.6;;;47.0;;
28455;SDS011;15682;56.742;38.866;2024-03-23T05:18:31;83.4;;;44.0;;
28455;SDS011;15682;56.742;38.866;2024-03-23T05:20:31;78.7;;;43.9;;
28455;SDS011;15682;56.742;38.866;2024-03-23T05:22:31;79.0;;;43.6;;
28455;SDS011;15682;56.742;38.866;2024-03-23T05:24:31;79.5;;;43.7;;
28455;SDS011;15682;56.742;38.866;2024-03-23T05:26:31;83.8;;;44.6;;
28455;SDS011;15682;56.742;38.866;2024-03-23T05:28:31;81.3;;;43.2;;
28455;SDS011;15682;56.742;38.866;2024-03-23T05:30:31;80.1;;;44.0;;
28455;SDS011;15682;56.742;38.866;2024-03-23T05:32:31;78.5;;;42.7;;
28455;SDS011;15682;56.742;38.866;2024-03-23T05:34:31;79.7;;;43.9;;
28455;SDS011;15682;56.742;38.866;2024-03-23T05:36:31;74.2;;;42.9;;
28455;SDS011;15682;56.742;38.866;2024-03-23T05:38:31;79.2;;;44.4;;
28455;SDS011;15682;56.742;38.866;2024-03-23T05:40:31;73.8;;;40.9;;
28455;SDS011;15682;56.742;38.866;2024-03-23T05:42:31;74.0;;;42.9;;
28455;SDS011;15682;56.742;38.866;2024-03-23T05:44:31;70.6;;;40.8;;
28455;SDS011;15682;56.742;38.866;2024-03-23T05:46:31;75.9;;;42.0;;
28455;SDS011;15682;56.742;38.866;2024-03-23T05:48:31;69.4;;;40.6;;
28455;SDS011;15682;56.742;38.866;2024-03-23T05:50:31;71.8;;;40.9;;
28455;SDS011;15682;56.742;38.866;2024-03-23T05:52:31;69.6;;;40.2;;
28455;SDS011;15682;56.742;38.866;2024-03-23T05:54:31;68.2;;;40.0;;
28455;SDS011;15682;56.742;38.866;2024-03-23T05:56:31;71.5;;;41.3;;
28455;SDS011;15682;56.742;38.866;2024-03-23T05:58:31;72.4;;;39.3;;
28455;SDS011;15682;56.742;38.866;2024-03-23T06:00:31;72.5;;;40.3;;
28455;SDS011;15682;56.742;38.866;2024-03-23T06:02:31;67.6;;;38.9;;
28455;SDS011;15682;56.742;38.866;2024-03-23T06:04:31;71.9;;;39.4;;
28455;SDS011;15682;56.742;38.866;2024-03-23T06:06:31;68.3;;;39.1;;
28455;SDS011;15682;56.742;38.866;2024-03-23T06:08:31;66.9;;;38.2;;
28455;SDS011;15682;56.742;38.866;2024-03-23T06:10:31;69.2;;;38.7;;
28455;SDS011;15682;56.742;38.866;2024-03-23T06:12:31;66.3;;;37.2;;
28455;SDS011;15682;56.742;38.866;2024-03-23T06:14:31;70.5;;;38.9;;
28455;SDS011;15682;56.742;38.866;2024-03-23T06:16:31;64.7;;;36.6;;
28455;SDS011;15682;56.742;38.866;2024-03-23T06:18:31;68.2;;;37.6;;
28455;SDS011;15682;56.742;38.866;2024-03-23T06:20:31;62.0;;;36.1;;
28455;SDS011;15682;56.742;38.866;2024-03-23T06:22:31;61.1;;;34.3;;
28455;SDS011;15682;56.742;38.866;2024-03-23T06:24:31;63.8;;;38.0;;
28455;SDS011;15682;56.742;38.866;2024-03-23T06:26:31;66.2;;;37.8;;
28455;SDS011;15682;56.742;38.866;2024-03-23T06:28:31;67.4;;;37.6;;
28455;SDS011;15682;56.742;38.866;2024-03-23T06:30:31;60.4;;;35.7;;
28455;SDS011;15682;56.742;38.866;2024-03-23T06:32:31;59.8;;;34.8;;
28455;SDS011;15682;56.742;38.866;2024-03-23T06:34:31;57.6;;;34.6;;
28455;SDS011;15682;56.742;38.866;2024-03-23T06:36:31;59.2;;;34.5;;
28455;SDS011;15682;56.742;38.866;2024-03-23T06:38:31;56.9;;;33.3;;
28455;SDS011;15682;56.742;38.866;2024-03-23T06:40:31;59.1;;;34.5;;
28455;SDS011;15682;56.742;38.866;2024-03-23T06:42:31;52.9;;;32.4;;
28455;SDS011;15682;56.742;38.866;2024-03-23T06:44:31;58.1;;;33.2;;
28455;SDS011;15682;56.742;38.866;2024-03-23T06:46:31;51.7;;;31.5;;
28455;SDS011;15682;56.742;38.866;2024-03-23T06:48:31;53.1;;;31.3;;
28455;SDS011;15682;56.742;38.866;2024-03-23T06:50:31;53.6;;;30.7;;
28455;SDS011;15682;56.742;38.866;2024-03-23T06:52:31;47.8;;;30.3;;
28455;SDS011;15682;56.742;38.866;2024-03-23T06:54:31;52.8;;;30.8;;
28455;SDS011;15682;56.742;38.866;2024-03-23T06:56:31;48.3;;;29.4;;
28455;SDS011;15682;56.742;38.866;2024-03-23T06:58:31;48.7;;;28.8;;
28455;SDS011;15682;56.742;38.866;2024-03-23T07:00:31;49.8;;;30.1;;
28455;SDS011;15682;56.742;38.866;2024-03-23T07:02:31;49.3;;;30.2;;
28455;SDS011;15682;56.742;38.866;2024-03-23T07:04:31;54.8;;;30.6;;
28455;SDS011;15682;56.742;38.866;2024-03-23T07:06:31;47.4;;;28.7;;
28455;SDS011;15682;56.742;38.866;2024-03-23T07:08:31;45.4;;;29.0;;
28455;SDS011;15682;56.742;38.866;2024-03-23T07:10:31;44.6;;;28.1;;
28455;SDS011;15682;56.742;38.866;2024-03-23T07:12:31;49.5;;;28.9;;
28455;SDS011;15682;56.742;38.866;2024-03-23T07:14:31;45.6;;;27.5;;
28455;SDS011;15682;56.742;38.866;2024-03-23T07:16:31;42.9;;;26.9;;
28455;SDS011;15682;56.742;38.866;2024-03-23T07:18:31;42.8;;;26.6;;
28455;SDS011;15682;56.742;38.866;2024-03-23T07:20:31;43.8;;;26.4;;
28455;SDS011;15682;56.742;38.866;2024-03-23T07:22:31;42.6;;;26.9;;
28455;SDS011;15682;56.742;38.866;2024-03-23T07:24:31;41.4;;;26.1;;
28455;SDS011;15682;56.742;38.866;2024-03-23T07:26:31;40.0;;;25.6;;
28455;SDS011;15682;56.742;38.866;2024-03-23T07:28:31;38.1;;;24.9;;
28455;SDS011;15682;56.742;38.866;2024-03-23T07:30:31;38.9;;;25.5;;
28455;SDS011;15682;56.742;38.866;2024-03-23T07:32:31;39.4;;;24.7;;
28455;SDS011;15682;56.742;38.866;2024-03-23T07:34:31;40.3;;;25.8;;
28455;SDS011;15682;56.742;38.866;2024-03-23T07:36:31;37.8;;;25.4;;
28455;SDS011;15682;56.742;38.866;2024-03-23T07:38:32;42.0;;;25.2;;
28455;SDS011;15682;56.742;38.866;2024-03-23T07:40:31;36.8;;;24.4;;
28455;SDS011;15682;56.742;38.866;2024-03-23T07:42:31;38.1;;;23.3;;
28455;SDS011;15682;56.742;38.866;2024-03-23T07:44:31;36.3;;;22.7;;
28455;SDS011;15682;56.742;38.866;2024-03-23T07:46:31;33.9;;;22.6;;
28455;SDS011;15682;56.742;38.866;2024-03-23T07:48:31;35.2;;;22.7;;
28455;SDS011;15682;56.742;38.866;2024-03-23T07:50:31;31.9;;;21.9;;
28455;SDS011;15682;56.742;38.866;2024-03-23T07:52:31;31.2;;;21.4;;
28455;SDS011;15682;56.742;38.866;2024-03-23T07:54:31;32.1;;;21.2;;
28455;SDS011;15682;56.742;38.866;2024-03-23T07:56:31;32.0;;;21.1;;
28455;SDS011;15682;56.742;38.866;2024-03-23T07:58:31;30.8;;;20.1;;
28455;SDS011;15682;56.742;38.866;2024-03-23T08:00:31;28.8;;;20.2;;
28455;SDS011;15682;56.742;38.866;2024-03-23T08:02:31;28.4;;;19.4;;
28455;SDS011;15682;56.742;38.866;2024-03-23T08:04:31;28.5;;;19.1;;
28455;SDS011;15682;56.742;38.866;2024-03-23T08:06:31;26.2;;;18.5;;
28455;SDS011;15682;56.742;38.866;2024-03-23T08:08:31;28.3;;;19.5;;
28455;SDS011;15682;56.742;38.866;2024-03-23T08:10:31;26.7;;;18.5;;
28455;SDS011;15682;56.742;38.866;2024-03-23T08:12:31;28.3;;;19.3;;
28455;SDS011;15682;56.742;38.866;2024-03-23T08:14:31;27.3;;;18.3;;
28455;SDS011;15682;56.742;38.866;2024-03-23T08:16:31;26.5;;;18.4;;
28455;SDS011;15682;56.742;38.866;2024-03-23T08:18:32;26.8;;;17.8;;
28455;SDS011;15682;56.742;38.866;2024-03-23T08:20:31;26.7;;;18.5;;
28455;SDS011;15682;56.742;38.866;2024-03-23T08:22:31;24.9;;;17.7;;
28455;SDS011;15682;56.742;38.866;2024-03-23T08:24:31;26.2;;;17.8;;
28455;SDS011;15682;56.742;38.866;2024-03-23T08:26:31;24.2;;;17.5;;
28455;SDS011;15682;56.742;38.866;2024-03-23T08:28:32;23.5;;;16.9;;
28455;SDS011;15682;56.742;38.866;2024-03-23T08:30:31;24.7;;;16.7;;
28455;SDS011;15682;56.742;38.866;2024-03-23T08:32:31;22.3;;;15.1;;
28455;SDS011;15682;56.742;38.866;2024-03-23T08:34:31;23.0;;;15.7;;
28455;SDS011;15682;56.742;38.866;2024-03-23T08:36:31;22.4;;;14.9;;
28455;SDS011;15682;56.742;38.866;2024-03-23T08:38:32;20.6;;;15.5;;
28455;SDS011;15682;56.742;38.866;2024-03-23T08:40:32;20.7;;;14.4;;
28455;SDS011;15682;56.742;38.866;2024-03-23T08:42:32;20.9;;;14.7;;
28455;SDS011;15682;56.742;38.866;2024-03-23T08:44:32;20.2;;;14.2;;
28455;SDS011;15682;56.742;38.866;2024-03-23T08:46:32;18.9;;;13.8;;
28455;SDS011;15682;56.742;38.866;2024-03-23T08:48:32;18.5;;;13.0;;
28455;SDS011;15682;56.742;38.866;2024-03-23T08:50:32;19.2;;;12.8;;
28455;SDS011;15682;56.742;38.866;2024-03-23T08:52:32;17.8;;;12.5;;
28455;SDS011;15682;56.742;38.866;2024-03-23T08:54:32;18.3;;;12.6;;
28455;SDS011;15682;56.742;38.866;2024-03-23T08:56:32;17.0;;;11.8;;
28455;SDS011;15682;56.742;38.866;2024-03-23T08:58:33;15.4;;;11.6;;
28455;SDS011;15682;56.742;38.866;2024-03-23T09:00:32;17.5;;;12.3;;
28455;SDS011;15682;56.742;38.866;2024-03-23T09:02:32;15.2;;;10.8;;
28455;SDS011;15682;56.742;38.866;2024-03-23T09:04:32;16.4;;;11.5;;
28455;SDS011;15682;56.742;38.866;2024-03-23T09:06:32;14.8;;;11.1;;
28455;SDS011;15682;56.742;38.866;2024-03-23T09:08:32;16.0;;;11.8;;
28455;SDS011;15682;56.742;38.866;2024-03-23T09:10:34;15.3;;;10.8;;
28455;SDS011;15682;56.742;38.866;2024-03-23T09:12:32;14.5;;;11.1;;
28455;SDS011;15682;56.742;38.866;2024-03-23T09:14:32;13.2;;;10.0;;
28455;SDS011;15682;56.742;38.866;2024-03-23T09:16:32;14.2;;;9.9;;
28455;SDS011;15682;56.742;38.866;2024-03-23T09:18:32;13.9;;;10.7;;
28455;SDS011;15682;56.742;38.866;2024-03-23T09:20:32;13.4;;;9.3;;
28455;SDS011;15682;56.742;38.866;2024-03-23T09:22:32;13.0;;;9.4;;
28455;SDS011;15682;56.742;38.866;2024-03-23T09:24:32;12.0;;;9.2;;
28455;SDS011;15682;56.742;38.866;2024-03-23T09:26:32;10.6;;;8.0;;
28455;SDS011;15682;56.742;38.866;2024-03-23T09:28:32;12.5;;;8.3;;
28455;SDS011;15682;56.742;38.866;2024-03-23T09:30:32;12.6;;;8.6;;
28455;SDS011;15682;56.742;38.866;2024-03-23T09:32:32;11.5;;;8.7;;
28455;SDS011;15682;56.742;38.866;2024-03-23T09:34:34;12.5;;;9.2;;
28455;SDS011;15682;56.742;38.866;2024-03-23T09:36:32;12.1;;;8.5;;
28455;SDS011;15682;56.742;38.866;2024-03-23T09:38:32;11.7;;;8.6;;
28455;SDS011;15682;56.742;38.866;2024-03-23T09:40:33;12.2;;;8.2;;
28455;SDS011;15682;56.742;38.866;2024-03-23T09:42:32;12.2;;;8.2;;
28455;SDS011;15682;56.742;38.866;2024-03-23T09:44:32;10.6;;;8.0;;
28455;SDS011;15682;56.742;38.866;2024-03-23T09:46:33;11.8;;;8.3;;
28455;SDS011;15682;56.742;38.866;2024-03-23T09:48:33;10.8;;;7.7;;
28455;SDS011;15682;56.742;38.866;2024-03-23T09:50:33;10.8;;;8.2;;
28455;SDS011;15682;56.742;38.866;2024-03-23T09:52:33;11.3;;;7.8;;
28455;SDS011;15682;56.742;38.866;2024-03-23T09:54:33;10.0;;;7.8;;
28455;SDS011;15682;56.742;38.866;2024-03-23T09:56:33;10.6;;;7.3;;
28455;SDS011;15682;56.742;38.866;2024-03-23T09:58:33;10.3;;;7.7;;
28455;SDS011;15682;56.742;38.866;2024-03-23T10:00:33;9.0;;;6.9;;
28455;SDS011;15682;56.742;38.866;2024-03-23T10:02:33;9.1;;;7.1;;
28455;SDS011;15682;56.742;38.866;2024-03-23T10:04:36;9.4;;;6.7;;
28455;SDS011;15682;56.742;38.866;2024-03-23T10:06:33;9.3;;;6.8;;
28455;SDS011;15682;56.742;38.866;2024-03-23T10:08:33;11.4;;;7.4;;
28455;SDS011;15682;56.742;38.866;2024-03-23T10:10:33;10.1;;;6.6;;
28455;SDS011;15682;56.742;38.866;2024-03-23T10:12:33;12.5;;;7.9;;
28455;SDS011;15682;56.742;38.866;2024-03-23T10:14:33;8.6;;;6.3;;
28455;SDS011;15682;56.742;38.866;2024-03-23T10:16:33;11.9;;;7.2;;
28455;SDS011;15682;56.742;38.866;2024-03-23T10:18:36;11.8;;;7.3;;
28455;SDS011;15682;56.742;38.866;2024-03-23T10:20:33;11.1;;;7.1;;
28455;SDS011;15682;56.742;38.866;2024-03-23T10:22:36;13.4;;;7.1;;
28455;SDS011;15682;56.742;38.866;2024-03-23T10:24:33;9.9;;;6.7;;
28455;SDS011;15682;56.742;38.866;2024-03-23T10:26:33;9.1;;;6.3;;
28455;SDS011;15682;56.742;38.866;2024-03-23T10:28:33;11.5;;;6.9;;
28455;SDS011;15682;56.742;38.866;2024-03-23T10:30:33;16.1;;;9.8;;
28455;SDS011;15682;56.742;38.866;2024-03-23T10:32:34;27.1;;;15.6;;
28455;SDS011;15682;56.742;38.866;2024-03-23T10:34:34;54.4;;;28.9;;
28455;SDS011;15682;56.742;38.866;2024-03-23T10:36:34;84.2;;;40.2;;
28455;SDS011;15682;56.742;38.866;2024-03-23T10:38:34;57.5;;;29.4;;
28455;SDS011;15682;56.742;38.866;2024-03-23T10:40:34;41.2;;;22.4;;
28455;SDS011;15682;56.742;38.866;2024-03-23T10:42:34;32.4;;;17.0;;
28455;SDS011;15682;56.742;38.866;2024-03-23T10:44:34;18.9;;;13.7;;
28455;SDS011;15682;56.742;38.866;2024-03-23T10:46:34;35.6;;;13.7;;
28455;SDS011;15682;56.742;38.866;2024-03-23T10:48:34;10.6;;;6.9;;
28455;SDS011;15682;56.742;38.866;2024-03-23T10:50:34;10.6;;;7.6;;
28455;SDS011;15682;56.742;38.866;2024-03-23T10:52:34;9.3;;;7.2;;
28455;SDS011;15682;56.742;38.866;2024-03-23T10:54:34;12.8;;;6.6;;
28455;SDS011;15682;56.742;38.866;2024-03-23T10:56:34;14.0;;;7.3;;
28455;SDS011;15682;56.742;38.866;2024-03-23T10:58:36;10.3;;;7.3;;
28455;SDS011;15682;56.742;38.866;2024-03-23T11:00:34;10.5;;;7.0;;
28455;SDS011;15682;56.742;38.866;2024-03-23T11:02:34;8.4;;;6.3;;
28455;SDS011;15682;56.742;38.866;2024-03-23T11:04:34;8.8;;;6.2;;
28455;SDS011;15682;56.742;38.866;2024-03-23T11:06:35;8.6;;;6.1;;
28455;SDS011;15682;56.742;38.866;2024-03-23T11:08:34;9.7;;;6.4;;
28455;SDS011;15682;56.742;38.866;2024-03-23T11:10:34;11.9;;;7.0;;
28455;SDS011;15682;56.742;38.866;2024-03-23T11:12:34;10.5;;;7.1;;
28455;SDS011;15682;56.742;38.866;2024-03-23T11:14:34;14.1;;;7.1;;
28455;SDS011;15682;56.742;38.866;2024-03-23T11:16:34;9.5;;;6.8;;
28455;SDS011;15682;56.742;38.866;2024-03-23T11:18:34;10.6;;;6.9;;
28455;SDS011;15682;56.742;38.866;2024-03-23T11:20:34;9.4;;;6.1;;
28455;SDS011;15682;56.742;38.866;2024-03-23T11:22:38;8.9;;;6.8;;
28455;SDS011;15682;56.742;38.866;2024-03-23T11:24:34;11.5;;;7.3;;
28455;SDS011;15682;56.742;38.866;2024-03-23T11:26:38;11.1;;;6.3;;
28455;SDS011;15682;56.742;38.866;2024-03-23T11:28:35;12.8;;;6.7;;
28455;SDS011;15682;56.742;38.866;2024-03-23T11:30:35;7.9;;;5.6;;
28455;SDS011;15682;56.742;38.866;2024-03-23T11:32:35;8.9;;;5.5;;
28455;SDS011;15682;56.742;38.866;2024-03-23T11:34:35;8.8;;;5.9;;
28455;SDS011;15682;56.742;38.866;2024-03-23T11:36:35;10.2;;;5.4;;
28455;SDS011;15682;56.742;38.866;2024-03-23T11:38:36;14.6;;;6.2;;
28455;SDS011;15682;56.742;38.866;2024-03-23T11:40:35;17.7;;;6.6;;
28455;SDS011;15682;56.742;38.866;2024-03-23T11:42:35;8.3;;;5.9;;
28455;SDS011;15682;56.742;38.866;2024-03-23T11:44:35;9.6;;;5.6;;
28455;SDS011;15682;56.742;38.866;2024-03-23T11:46:35;9.1;;;5.5;;
28455;SDS011;15682;56.742;38.866;2024-03-23T11:48:35;9.2;;;5.4;;
28455;SDS011;15682;56.742;38.866;2024-03-23T11:50:36;7.9;;;5.4;;
28455;SDS011;15682;56.742;38.866;2024-03-23T11:52:35;8.8;;;6.0;;
28455;SDS011;15682;56.742;38.866;2024-03-23T11:54:35;8.2;;;6.1;;
28455;SDS011;15682;56.742;38.866;2024-03-23T11:56:35;10.6;;;5.7;;
28455;SDS011;15682;56.742;38.866;2024-03-23T11:58:35;11.8;;;6.6;;
28455;SDS011;15682;56.742;38.866;2024-03-23T12:00:35;9.7;;;5.9;;
28455;SDS011;15682;56.742;38.866;2024-03-23T12:02:35;9.3;;;6.3;;
28455;SDS011;15682;56.742;38.866;2024-03-23T12:04:35;10.5;;;6.3;;
28455;SDS011;15682;56.742;38.866;2024-03-23T12:06:35;9.1;;;6.0;;
28455;SDS011;15682;56.742;38.866;2024-03-23T12:08:35;9.2;;;6.8;;
28455;SDS011;15682;56.742;38.866;2024-03-23T12:10:35;9.4;;;6.4;;
28455;SDS011;15682;56.742;38.866;2024-03-23T12:12:36;9.8;;;6.5;;
28455;SDS011;15682;56.742;38.866;2024-03-23T12:14:36;11.0;;;7.1;;
28455;SDS011;15682;56.742;38.866;2024-03-23T12:16:36;13.3;;;7.9;;
28455;SDS011;15682;56.742;38.866;2024-03-23T12:18:36;12.2;;;7.6;;
28455;SDS011;15682;56.742;38.866;2024-03-23T12:20:36;13.5;;;7.4;;
28455;SDS011;15682;56.742;38.866;2024-03-23T12:22:36;11.5;;;7.7;;
28455;SDS011;15682;56.742;38.866;2024-03-23T12:24:36;15.1;;;8.1;;
28455;SDS011;15682;56.742;38.866;2024-03-23T12:26:36;10.9;;;7.6;;
28455;SDS011;15682;56.742;38.866;2024-03-23T12:28:36;10.7;;;7.4;;
28455;SDS011;15682;56.742;38.866;2024-03-23T12:30:38;10.6;;;7.5;;
28455;SDS011;15682;56.742;38.866;2024-03-23T12:32:36;12.1;;;7.6;;
28455;SDS011;15682;56.742;38.866;2024-03-23T12:34:36;9.2;;;7.1;;
28455;SDS011;15682;56.742;38.866;2024-03-23T12:36:36;11.0;;;7.3;;
28455;SDS011;15682;56.742;38.866;2024-03-23T12:38:36;10.3;;;6.9;;
28455;SDS011;15682;56.742;38.866;2024-03-23T12:40:36;8.8;;;6.9;;
28455;SDS011;15682;56.742;38.866;2024-03-23T12:42:36;10.6;;;7.6;;
28455;SDS011;15682;56.742;38.866;2024-03-23T12:44:36;11.0;;;6.7;;
28455;SDS011;15682;56.742;38.866;2024-03-23T12:46:36;8.7;;;6.5;;
28455;SDS011;15682;56.742;38.866;2024-03-23T12:48:36;9.7;;;7.4;;